createdAt,value
2023-05-14T00:00:16.398Z,27.93
2023-05-14T00:02:43.650Z,26.70
2023-05-14T00:05:10.925Z,30.87
2023-05-14T00:07:38.100Z,28.23
2023-05-14T00:10:05.357Z,24.07
2023-05-14T00:12:32.534Z,23.70
2023-05-14T00:14:59.669Z,19.93
2023-05-14T00:17:26.833Z,22.47
2023-05-14T00:19:53.997Z,22.30
2023-05-14T00:22:21.129Z,21.47
2023-05-14T00:24:48.292Z,23.67
2023-05-14T00:27:15.414Z,21.83
2023-05-14T00:29:42.535Z,24.70
2023-05-14T00:32:09.651Z,23.50
2023-05-14T00:34:36.879Z,22.83
2023-05-14T00:37:04.016Z,23.03
2023-05-14T00:39:31.149Z,27.57
2023-05-14T00:41:58.269Z,25.00
2023-05-14T00:44:25.439Z,22.43
2023-05-14T00:46:52.663Z,24.77
2023-05-14T00:49:19.805Z,23.70
2023-05-14T00:51:47.130Z,20.20
2023-05-14T00:54:17.621Z,23.10
2023-05-14T00:56:45.967Z,24.50
2023-05-14T00:59:13.354Z,21.83
2023-05-14T01:01:40.586Z,23.90
2023-05-14T01:04:07.905Z,24.40
2023-05-14T01:06:47.195Z,26.20
2023-05-14T01:09:20.255Z,25.63
2023-05-14T01:12:05.886Z,26.90
2023-05-14T01:14:51.810Z,28.27
2023-05-14T01:17:22.892Z,29.67
2023-05-14T01:19:50.024Z,21.60
2023-05-14T01:22:17.134Z,22.03
2023-05-14T01:24:44.287Z,24.43
2023-05-14T01:27:12.707Z,23.17
2023-05-14T01:29:39.926Z,20.53
2023-05-14T01:32:07.478Z,20.97
2023-05-14T01:34:34.591Z,21.70
2023-05-14T01:37:01.729Z,23.63
2023-05-14T01:39:30.283Z,19.47
2023-05-14T01:41:57.467Z,18.13
2023-05-14T01:44:24.606Z,17.13
2023-05-14T01:46:51.760Z,17.57
2023-05-14T01:49:19.622Z,16.00
2023-05-14T01:51:46.716Z,17.70
2023-05-14T01:54:13.847Z,25.20
2023-05-14T01:56:40.929Z,24.67
2023-05-14T01:59:08.016Z,26.20
2023-05-14T02:01:35.485Z,23.83
2023-05-14T02:04:02.666Z,23.33
2023-05-14T02:06:29.875Z,27.43
2023-05-14T02:08:56.990Z,25.77
2023-05-14T02:11:24.139Z,22.07
2023-05-14T02:13:51.488Z,21.90
2023-05-14T02:16:19.320Z,21.30
2023-05-14T02:18:46.530Z,29.33
2023-05-14T02:21:13.721Z,24.07
2023-05-14T02:23:42.146Z,27.03
2023-05-14T02:26:10.185Z,30.60
2023-05-14T02:28:37.334Z,31.33
2023-05-14T02:31:04.483Z,25.83
2023-05-14T02:33:31.699Z,26.70
2023-05-14T02:35:58.866Z,32.67
2023-05-14T02:38:27.210Z,31.00
2023-05-14T02:40:54.344Z,30.60
2023-05-14T02:43:21.571Z,22.60
2023-05-14T02:45:48.687Z,23.43
2023-05-14T02:48:15.827Z,24.93
2023-05-14T02:50:42.912Z,26.17
2023-05-14T02:53:10.264Z,23.50
2023-05-14T02:55:37.417Z,22.57
2023-05-14T02:58:04.583Z,20.37
2023-05-14T03:00:31.862Z,21.63
2023-05-14T03:02:59.387Z,24.97
2023-05-14T03:05:26.880Z,33.00
2023-05-14T03:07:54.059Z,34.90
2023-05-14T03:10:21.388Z,25.73
2023-05-14T03:12:49.376Z,29.03
2023-05-14T03:15:16.493Z,25.20
2023-05-14T03:17:43.597Z,24.57
2023-05-14T03:20:11.167Z,24.47
2023-05-14T03:22:38.283Z,27.73
2023-05-14T03:25:05.534Z,23.97
2023-05-14T03:27:33.649Z,23.30
2023-05-14T03:30:00.924Z,23.33
2023-05-14T03:32:28.060Z,26.97
2023-05-14T03:34:55.672Z,24.17
2023-05-14T03:37:22.833Z,26.63
2023-05-14T03:39:49.943Z,25.07
2023-05-14T03:42:17.025Z,23.23
2023-05-14T03:44:44.265Z,25.77
2023-05-14T03:47:11.672Z,22.73
2023-05-14T03:49:38.781Z,29.57
2023-05-14T03:52:05.993Z,23.67
2023-05-14T03:54:33.124Z,25.20
2023-05-14T03:57:00.195Z,27.90
2023-05-14T03:59:27.310Z,28.90
2023-05-14T04:01:54.598Z,30.10
2023-05-14T04:04:21.774Z,28.37
2023-05-14T04:06:48.978Z,36.40
2023-05-14T04:09:16.085Z,33.27
2023-05-14T04:11:43.197Z,36.53
2023-05-14T04:14:10.353Z,36.80
2023-05-14T04:16:37.558Z,36.50
2023-05-14T04:19:05.783Z,45.70
2023-05-14T04:21:33.014Z,43.97
2023-05-14T04:24:00.214Z,45.37
2023-05-14T04:26:27.389Z,37.33
2023-05-14T04:28:54.537Z,33.60
2023-05-14T04:31:21.698Z,34.13
2023-05-14T04:33:48.866Z,27.87
2023-05-14T04:36:16.115Z,27.07
2023-05-14T04:38:43.198Z,31.37
2023-05-14T04:41:10.304Z,33.83
2023-05-14T04:43:37.541Z,28.20
2023-05-14T04:46:05.379Z,24.53
2023-05-14T04:48:32.654Z,26.80
2023-05-14T04:50:59.793Z,25.90
2023-05-14T04:53:26.975Z,26.90
2023-05-14T04:55:54.193Z,25.63
2023-05-14T04:58:23.209Z,21.13
2023-05-14T05:00:50.654Z,17.47
2023-05-14T05:03:17.862Z,19.07
2023-05-14T05:05:45.095Z,15.63
2023-05-14T05:08:12.220Z,16.10
2023-05-14T05:10:39.363Z,15.65
2023-05-14T05:13:06.553Z,16.07
2023-05-14T05:15:33.702Z,18.00
2023-05-14T05:18:01.146Z,12.93
2023-05-14T05:20:28.910Z,13.18
2023-05-14T05:22:56.098Z,14.73
2023-05-14T05:25:23.206Z,13.65
2023-05-14T05:27:50.340Z,12.38
2023-05-14T05:30:17.452Z,12.50
2023-05-14T05:32:44.581Z,17.40
2023-05-14T05:35:11.729Z,12.15
2023-05-14T05:37:38.835Z,10.43
2023-05-14T05:40:06.879Z,11.65
2023-05-14T05:42:34.035Z,14.23
2023-05-14T05:45:01.183Z,14.05
2023-05-14T05:47:28.397Z,15.25
2023-05-14T05:49:55.559Z,15.15
2023-05-14T05:52:22.700Z,12.75
2023-05-14T05:54:49.851Z,10.80
2023-05-14T05:57:17.005Z,10.70
2023-05-14T05:59:44.197Z,10.40
2023-05-14T06:02:11.422Z,12.75
2023-05-14T06:04:38.617Z,14.60
2023-05-14T06:07:05.741Z,10.32
2023-05-14T06:09:32.878Z,10.77
2023-05-14T06:12:00.002Z,10.68
2023-05-14T06:14:27.124Z,9.50
2023-05-14T06:16:54.315Z,11.70
2023-05-14T06:19:22.455Z,9.90
2023-05-14T06:21:49.635Z,7.78
2023-05-14T06:24:16.751Z,6.45
2023-05-14T06:26:43.932Z,9.48
2023-05-14T06:29:11.086Z,7.85
2023-05-14T06:31:38.246Z,6.60
2023-05-14T06:34:05.406Z,7.00
2023-05-14T06:36:32.554Z,7.25
2023-05-14T06:38:59.668Z,10.13
2023-05-14T06:41:26.868Z,8.00
2023-05-14T06:43:54.038Z,8.27
2023-05-14T06:46:21.165Z,9.35
2023-05-14T06:48:48.321Z,10.95
2023-05-14T06:51:15.411Z,9.73
2023-05-14T06:53:42.535Z,8.45
2023-05-14T06:56:09.695Z,9.13
2023-05-14T06:58:36.805Z,9.02
2023-05-14T07:01:03.943Z,10.10
2023-05-14T07:03:31.165Z,8.00
2023-05-14T07:05:58.318Z,8.15
2023-05-14T07:08:25.862Z,7.53
2023-05-14T07:10:52.997Z,8.27
2023-05-14T07:13:20.110Z,7.18
2023-05-14T07:15:47.196Z,7.35
2023-05-14T07:18:14.363Z,8.98
2023-05-14T07:20:41.537Z,15.02
2023-05-14T07:23:08.715Z,6.18
2023-05-14T07:25:35.882Z,5.97
2023-05-14T07:28:03.164Z,7.25
2023-05-14T07:30:30.242Z,4.93
2023-05-14T07:32:57.470Z,7.75
2023-05-14T07:35:24.581Z,6.07
2023-05-14T07:37:51.750Z,5.07
2023-05-14T07:40:20.244Z,5.05
2023-05-14T07:42:47.345Z,4.43
2023-05-14T07:45:14.485Z,5.32
2023-05-14T07:47:41.771Z,5.55
2023-05-14T07:50:09.218Z,4.53
2023-05-14T07:52:36.336Z,4.85
2023-05-14T07:55:03.856Z,4.00
2023-05-14T07:57:30.979Z,5.88
2023-05-14T07:59:58.171Z,5.20
2023-05-14T08:02:25.422Z,3.97
2023-05-14T08:04:52.607Z,4.80
2023-05-14T08:07:19.704Z,4.10
2023-05-14T08:09:46.863Z,5.57
2023-05-14T08:12:14.452Z,5.40
2023-05-14T08:14:41.610Z,6.10
2023-05-14T08:17:08.810Z,3.85
2023-05-14T08:19:36.123Z,3.88
2023-05-14T08:22:03.672Z,4.47
2023-05-14T08:24:30.779Z,9.48
2023-05-14T08:26:57.953Z,4.30
2023-05-14T08:29:25.874Z,3.13
2023-05-14T08:31:53.024Z,3.20
2023-05-14T08:34:20.128Z,3.40
2023-05-14T08:36:47.228Z,3.10
2023-05-14T08:39:14.427Z,3.03
2023-05-14T08:41:41.525Z,3.28
2023-05-14T08:44:11.724Z,3.05
2023-05-14T08:46:39.095Z,5.40
2023-05-14T08:49:13.244Z,5.15
2023-05-14T08:51:40.754Z,7.40
2023-05-14T08:54:07.917Z,4.00
2023-05-14T08:56:35.215Z,2.97
2023-05-14T08:59:02.419Z,3.25
2023-05-14T09:01:29.871Z,4.25
2023-05-14T09:03:57.016Z,4.00
2023-05-14T09:06:24.208Z,5.18
2023-05-14T09:08:51.595Z,3.28
2023-05-14T09:11:18.761Z,4.72
2023-05-14T09:13:45.917Z,3.65
2023-05-14T09:16:13.155Z,3.25
2023-05-14T09:18:42.965Z,1.92
2023-05-14T09:21:10.125Z,2.60
2023-05-14T09:23:37.198Z,1.92
2023-05-14T09:26:07.334Z,1.80
2023-05-14T09:28:34.449Z,1.70
2023-05-14T09:31:01.586Z,1.58
2023-05-14T09:33:29.399Z,2.92
2023-05-14T09:36:00.668Z,2.22
2023-05-14T09:38:34.107Z,2.60
2023-05-14T09:41:01.372Z,1.60
2023-05-14T09:43:28.477Z,1.60
2023-05-14T09:45:55.586Z,2.15
2023-05-14T09:48:23.065Z,3.05
2023-05-14T09:50:51.578Z,2.22
2023-05-14T09:53:18.760Z,1.30
2023-05-14T09:55:45.979Z,2.22
2023-05-14T09:58:16.185Z,3.97
2023-05-14T10:00:46.943Z,1.55
2023-05-14T10:03:17.963Z,1.40
2023-05-14T10:05:46.809Z,2.28
2023-05-14T10:08:14.600Z,1.70
2023-05-14T10:10:42.062Z,2.90
2023-05-14T10:13:12.491Z,2.33
2023-05-14T10:15:49.475Z,3.55
2023-05-14T10:18:23.857Z,2.13
2023-05-14T10:20:54.443Z,1.52
2023-05-14T10:23:21.594Z,2.67
2023-05-14T10:25:48.710Z,1.50
2023-05-14T10:28:16.111Z,1.77
2023-05-14T10:30:46.586Z,1.90
2023-05-14T10:33:15.502Z,1.77
2023-05-14T10:35:52.272Z,2.17
2023-05-14T10:38:23.118Z,4.22
2023-05-14T10:40:53.556Z,3.13
2023-05-14T10:43:21.306Z,2.92
2023-05-14T10:45:48.470Z,1.65
2023-05-14T10:48:15.998Z,1.60
2023-05-14T10:50:43.249Z,1.75
2023-05-14T10:53:14.002Z,2.13
2023-05-14T10:55:42.777Z,1.90
2023-05-14T10:58:10.145Z,2.13
2023-05-14T11:00:37.351Z,3.25
2023-05-14T11:03:05.046Z,1.42
2023-05-14T11:05:32.245Z,2.92
2023-05-14T11:07:59.515Z,1.70
2023-05-14T11:10:28.370Z,3.05
2023-05-14T11:12:55.506Z,9.13
2023-05-14T11:15:23.045Z,2.53
2023-05-14T11:17:50.439Z,4.65
2023-05-14T11:20:17.884Z,5.57
2023-05-14T11:22:45.400Z,2.13
2023-05-14T11:25:14.729Z,3.78
2023-05-14T11:27:42.973Z,2.45
2023-05-14T11:30:14.259Z,1.63
2023-05-14T11:32:41.607Z,5.85
2023-05-14T11:35:09.147Z,2.85
2023-05-14T11:37:36.273Z,6.50
2023-05-14T11:40:04.951Z,3.65
2023-05-14T11:42:32.074Z,7.97
2023-05-14T11:44:59.708Z,3.15
2023-05-14T11:47:26.875Z,4.20
2023-05-14T11:49:54.036Z,2.00
2023-05-14T11:52:22.056Z,4.43
2023-05-14T11:54:50.726Z,2.88
2023-05-14T11:57:18.947Z,3.75
2023-05-14T11:59:46.328Z,4.10
2023-05-14T12:02:14.024Z,2.38
2023-05-14T12:04:41.629Z,6.40
2023-05-14T12:07:18.036Z,7.47
2023-05-14T12:09:49.668Z,3.78
2023-05-14T12:12:20.540Z,14.35
2023-05-14T12:14:47.967Z,10.02
2023-05-14T12:17:18.801Z,3.08
2023-05-14T12:19:46.438Z,2.22
2023-05-14T12:22:14.708Z,4.30
2023-05-14T12:24:41.924Z,1.88
2023-05-14T12:27:09.637Z,1.88
2023-05-14T12:29:40.040Z,3.38
2023-05-14T12:32:10.938Z,2.80
2023-05-14T12:34:38.659Z,3.92
2023-05-14T12:37:06.370Z,3.63
2023-05-14T12:39:33.868Z,1.85
2023-05-14T12:42:01.614Z,1.50
2023-05-14T12:44:28.941Z,2.28
2023-05-14T12:46:56.354Z,1.40
2023-05-14T12:49:23.455Z,2.10
2023-05-14T12:51:54.799Z,7.72
2023-05-14T12:54:31.765Z,2.53
2023-05-14T12:56:59.091Z,1.73
2023-05-14T12:59:26.218Z,1.63
2023-05-14T13:01:53.383Z,1.60
2023-05-14T13:04:20.520Z,3.10
2023-05-14T13:06:47.739Z,1.98
2023-05-14T13:09:14.866Z,2.40
2023-05-14T13:11:41.987Z,1.30
2023-05-14T13:14:09.132Z,1.42
2023-05-14T13:16:36.353Z,1.83
2023-05-14T13:19:03.538Z,2.88
2023-05-14T13:21:31.241Z,2.00
2023-05-14T13:23:58.397Z,1.52
2023-05-14T13:26:28.168Z,1.70
2023-05-14T13:28:55.343Z,1.17
2023-05-14T13:31:22.571Z,1.92
2023-05-14T13:33:49.713Z,1.67
2023-05-14T13:36:16.889Z,2.08
2023-05-14T13:38:45.811Z,2.20
2023-05-14T13:41:12.949Z,2.95
2023-05-14T13:43:40.136Z,4.32
2023-05-14T13:46:07.514Z,3.03
2023-05-14T13:48:36.385Z,1.92
2023-05-14T13:51:03.689Z,1.70
2023-05-14T13:53:30.872Z,1.60
2023-05-14T13:55:58.568Z,1.60
2023-05-14T13:58:26.139Z,2.28
2023-05-14T14:00:53.436Z,1.38
2023-05-14T14:03:20.661Z,1.48
2023-05-14T14:05:47.790Z,1.48
2023-05-14T14:08:23.238Z,2.17
2023-05-14T14:10:51.401Z,1.52
2023-05-14T14:13:18.557Z,1.45
2023-05-14T14:15:45.790Z,2.08
2023-05-14T14:18:12.921Z,3.38
2023-05-14T14:20:40.071Z,3.42
2023-05-14T14:23:07.503Z,3.92
2023-05-14T14:25:34.606Z,1.75
2023-05-14T14:28:01.717Z,2.40
2023-05-14T14:30:28.892Z,2.65
2023-05-14T14:32:56.083Z,2.63
2023-05-14T14:35:23.750Z,1.60
2023-05-14T14:37:53.637Z,2.97
2023-05-14T14:40:21.052Z,1.70
2023-05-14T14:42:48.155Z,1.55
2023-05-14T14:45:15.262Z,3.47
2023-05-14T14:47:46.114Z,2.58
2023-05-14T14:50:13.702Z,2.10
2023-05-14T14:52:41.079Z,4.63
2023-05-14T14:55:08.428Z,4.22
2023-05-14T14:57:35.728Z,3.60
2023-05-14T15:00:02.942Z,5.10
2023-05-14T15:02:30.145Z,3.17
2023-05-14T15:04:57.328Z,2.63
2023-05-14T15:07:24.474Z,2.00
2023-05-14T15:09:51.645Z,1.85
2023-05-14T15:12:19.182Z,2.47
2023-05-14T15:14:46.309Z,2.67
2023-05-14T15:17:13.418Z,1.88
2023-05-14T15:19:40.673Z,2.28
2023-05-14T15:22:07.772Z,2.08
2023-05-14T15:24:34.956Z,2.50
2023-05-14T15:27:02.125Z,2.60
2023-05-14T15:29:29.437Z,2.95
2023-05-14T15:31:56.670Z,2.20
2023-05-14T15:34:23.878Z,2.38
2023-05-14T15:36:51.258Z,2.08
2023-05-14T15:39:18.379Z,1.70
2023-05-14T15:41:45.851Z,4.75
2023-05-14T15:44:12.980Z,1.85
2023-05-14T15:46:40.172Z,4.50
2023-05-14T15:49:07.380Z,2.72
2023-05-14T15:51:34.862Z,5.07
2023-05-14T15:54:01.995Z,8.60
2023-05-14T15:56:29.180Z,1.17
2023-05-14T15:58:56.335Z,2.38
2023-05-14T16:01:23.682Z,4.45
2023-05-14T16:03:50.974Z,9.80
2023-05-14T16:06:18.123Z,4.40
2023-05-14T16:08:45.285Z,8.57
2023-05-14T16:11:12.417Z,4.28
2023-05-14T16:13:41.463Z,0.80
2023-05-14T16:16:09.045Z,2.13
2023-05-14T16:18:36.231Z,1.35
2023-05-14T16:21:03.623Z,1.17
2023-05-14T16:23:30.966Z,1.20
2023-05-14T16:25:58.179Z,1.63
2023-05-14T16:28:25.336Z,1.42
2023-05-14T16:30:52.454Z,3.47
2023-05-14T16:33:19.611Z,2.28
2023-05-14T16:35:46.800Z,1.55
2023-05-14T16:38:14.052Z,1.20
2023-05-14T16:40:41.805Z,0.75
2023-05-14T16:43:08.969Z,3.45
2023-05-14T16:45:37.308Z,11.55
2023-05-14T16:48:05.018Z,11.00
2023-05-14T16:50:32.359Z,6.80
2023-05-14T16:52:59.471Z,4.82
2023-05-14T16:55:26.638Z,4.10
2023-05-14T16:57:53.794Z,9.10
2023-05-14T17:00:21.046Z,26.98
2023-05-14T17:02:49.762Z,7.78
2023-05-14T17:05:17.061Z,5.65
2023-05-14T17:07:44.228Z,12.45
2023-05-14T17:10:11.587Z,13.95
2023-05-14T17:12:38.735Z,10.43
2023-05-14T17:15:09.001Z,52.35
2023-05-14T17:17:36.184Z,18.30
2023-05-14T17:20:05.979Z,21.77
2023-05-14T17:22:33.175Z,4.07
2023-05-14T17:25:00.362Z,8.82
2023-05-14T17:27:29.211Z,10.07
2023-05-14T17:29:56.320Z,23.40
2023-05-14T17:32:23.558Z,36.60
2023-05-14T17:34:50.719Z,59.72
2023-05-14T17:37:17.985Z,90.82
2023-05-14T17:39:45.210Z,46.38
2023-05-14T17:42:12.470Z,22.10
2023-05-14T17:44:39.599Z,16.63
2023-05-14T17:47:08.287Z,2.70
2023-05-14T17:49:35.735Z,1.77
2023-05-14T17:52:02.947Z,3.08
2023-05-14T17:54:30.269Z,27.38
2023-05-14T17:56:57.388Z,14.27
2023-05-14T17:59:24.646Z,19.40
2023-05-14T18:01:51.944Z,5.05
2023-05-14T18:04:19.756Z,10.77
2023-05-14T18:06:46.867Z,4.78
2023-05-14T18:09:14.050Z,6.05
2023-05-14T18:11:41.146Z,7.85
2023-05-14T18:14:08.239Z,4.18
2023-05-14T18:16:35.926Z,2.72
2023-05-14T18:19:03.107Z,2.83
2023-05-14T18:21:30.786Z,3.00
2023-05-14T18:23:57.895Z,2.97
2023-05-14T18:26:25.028Z,2.13
2023-05-14T18:28:52.178Z,1.95
2023-05-14T18:31:19.338Z,4.20
2023-05-14T18:33:46.599Z,4.35
2023-05-14T18:36:13.718Z,4.68
2023-05-14T18:38:40.952Z,5.25
2023-05-14T18:41:08.057Z,2.85
2023-05-14T18:43:35.204Z,4.80
2023-05-14T18:46:02.453Z,5.57
2023-05-14T18:48:29.603Z,13.32
2023-05-14T18:50:56.725Z,24.10
2023-05-14T18:53:23.920Z,23.75
2023-05-14T18:55:51.110Z,18.38
2023-05-14T18:58:18.273Z,15.82
2023-05-14T19:00:45.504Z,11.13
2023-05-14T19:03:12.717Z,7.75
2023-05-14T19:05:39.959Z,2.97
2023-05-14T19:08:07.323Z,5.05
2023-05-14T19:10:34.789Z,4.13
2023-05-14T19:13:02.160Z,3.08
2023-05-14T19:15:29.346Z,3.38
2023-05-14T19:17:56.509Z,3.30
2023-05-14T19:20:23.712Z,4.53
2023-05-14T19:22:51.001Z,2.85
2023-05-14T19:25:18.181Z,5.35
2023-05-14T19:27:45.660Z,2.15
2023-05-14T19:30:13.164Z,2.83
2023-05-14T19:32:40.341Z,3.33
2023-05-14T19:35:07.523Z,5.38
2023-05-14T19:37:34.745Z,3.90
2023-05-14T19:40:01.909Z,5.68
2023-05-14T19:42:29.041Z,7.68
2023-05-14T19:44:56.278Z,10.82
2023-05-14T19:47:23.529Z,16.13
2023-05-14T19:49:50.810Z,92.50
2023-05-14T19:52:18.004Z,73.18
2023-05-14T19:54:45.200Z,40.88
2023-05-14T19:57:12.399Z,25.95
2023-05-14T19:59:40.401Z,66.32
2023-05-14T20:02:09.190Z,71.43
2023-05-14T20:04:39.984Z,60.15
2023-05-14T20:07:07.190Z,36.33
2023-05-14T20:09:34.326Z,26.48
2023-05-14T20:12:01.459Z,21.95
2023-05-14T20:14:28.589Z,15.00
2023-05-14T20:16:57.993Z,13.00
2023-05-14T20:19:26.620Z,11.82
2023-05-14T20:21:53.777Z,15.80
2023-05-14T20:24:20.931Z,22.98
2023-05-14T20:26:48.076Z,20.67
2023-05-14T20:29:15.184Z,30.98
2023-05-14T20:31:42.267Z,24.33
2023-05-14T20:34:09.501Z,22.63
2023-05-14T20:36:37.446Z,18.80
2023-05-14T20:39:06.180Z,22.30
2023-05-14T20:41:33.316Z,21.50
2023-05-14T20:44:00.597Z,18.88
2023-05-14T20:46:27.781Z,19.33
2023-05-14T20:48:55.768Z,24.90
2023-05-14T20:51:22.934Z,29.38
2023-05-14T20:53:50.049Z,21.10
2023-05-14T20:56:17.155Z,16.35
2023-05-14T20:58:44.373Z,15.10
2023-05-14T21:01:11.498Z,30.45
2023-05-14T21:03:38.742Z,36.50
2023-05-14T21:06:05.982Z,35.70
2023-05-14T21:08:34.910Z,32.67
2023-05-14T21:11:02.035Z,33.35
2023-05-14T21:13:29.186Z,33.70
2023-05-14T21:15:56.409Z,33.63
2023-05-14T21:18:26.971Z,29.55
2023-05-14T21:20:54.221Z,22.35
2023-05-14T21:23:21.386Z,19.83
2023-05-14T21:25:48.500Z,17.13
2023-05-14T21:28:15.614Z,22.48
2023-05-14T21:30:42.730Z,24.27
2023-05-14T21:33:09.961Z,14.95
2023-05-14T21:35:37.200Z,11.20
2023-05-14T21:38:04.533Z,13.45
2023-05-14T21:40:31.634Z,15.63
2023-05-14T21:42:58.812Z,15.93
2023-05-14T21:45:26.226Z,16.38
2023-05-14T21:47:53.539Z,16.38
2023-05-14T21:50:20.972Z,13.20
2023-05-14T21:52:48.100Z,12.65
2023-05-14T21:55:15.277Z,12.80
2023-05-14T21:57:42.397Z,12.95
2023-05-14T22:00:12.653Z,12.65
2023-05-14T22:02:40.257Z,12.95
2023-05-14T22:05:07.529Z,10.20
2023-05-14T22:07:34.646Z,11.23
2023-05-14T22:10:02.235Z,11.68
2023-05-14T22:12:29.381Z,12.38
2023-05-14T22:14:56.461Z,13.85
2023-05-14T22:17:23.646Z,14.95
2023-05-14T22:19:50.863Z,13.85
2023-05-14T22:22:17.960Z,15.18
2023-05-14T22:24:45.089Z,12.93
2023-05-14T22:27:12.225Z,15.75
2023-05-14T22:29:39.388Z,11.70
2023-05-14T22:32:08.106Z,12.57
2023-05-14T22:34:35.276Z,12.85
2023-05-14T22:37:02.979Z,21.52
2023-05-14T22:39:30.292Z,23.25
2023-05-14T22:41:57.453Z,18.10
2023-05-14T22:44:24.576Z,17.45
2023-05-14T22:46:51.846Z,20.52
2023-05-14T22:49:19.034Z,16.50
2023-05-14T22:51:46.170Z,15.82
2023-05-14T22:54:13.260Z,11.60
2023-05-14T22:56:40.501Z,15.73
2023-05-14T22:59:07.607Z,12.85
2023-05-14T23:01:34.804Z,13.07
2023-05-14T23:04:02.015Z,14.00
2023-05-14T23:06:30.156Z,13.05
2023-05-14T23:08:57.287Z,12.70
2023-05-14T23:11:24.875Z,12.10
2023-05-14T23:13:52.007Z,11.88
2023-05-14T23:16:19.277Z,13.73
2023-05-14T23:18:46.522Z,13.55
2023-05-14T23:21:14.153Z,9.50
2023-05-14T23:23:41.281Z,10.18
2023-05-14T23:26:08.401Z,13.75
2023-05-14T23:28:35.497Z,12.68
2023-05-14T23:31:02.639Z,12.32
2023-05-14T23:33:29.970Z,12.73
2023-05-14T23:35:57.072Z,12.60
2023-05-14T23:38:24.165Z,12.93
2023-05-14T23:40:51.281Z,13.52
2023-05-14T23:43:18.438Z,12.85
2023-05-14T23:45:45.677Z,14.77
2023-05-14T23:48:12.832Z,14.18
2023-05-14T23:50:39.916Z,15.57
2023-05-14T23:53:07.867Z,12.52
2023-05-14T23:55:35.053Z,13.40
2023-05-14T23:58:02.165Z,11.63
